createdAt,value
2018-09-12T00:00:06.304Z,5.50
2018-09-12T00:01:06.305Z,2.00
2018-09-12T00:02:06.309Z,7.50
2018-09-12T00:03:06.310Z,2.90
2018-09-12T00:04:06.315Z,6.20
2018-09-12T00:05:06.314Z,2.60
2018-09-12T00:06:06.317Z,2.60
2018-09-12T00:07:06.321Z,1.80
2018-09-12T00:08:06.322Z,5.10
2018-09-12T00:09:06.324Z,2.10
2018-09-12T00:10:06.326Z,3.10
2018-09-12T00:11:06.329Z,3.90
2018-09-12T00:12:06.331Z,4.00
2018-09-12T00:13:06.333Z,2.10
2018-09-12T00:14:06.336Z,2.50
2018-09-12T00:15:06.341Z,5.50
2018-09-12T00:16:06.341Z,2.10
2018-09-12T00:17:06.344Z,5.80
2018-09-12T00:18:06.344Z,3.20
2018-09-12T00:19:06.349Z,2.10
2018-09-12T00:20:06.349Z,2.60
2018-09-12T00:21:06.364Z,3.00
2018-09-12T00:22:06.356Z,3.70
2018-09-12T00:23:06.356Z,2.60
2018-09-12T00:24:06.359Z,3.30
2018-09-12T00:25:06.360Z,2.70
2018-09-12T00:26:06.363Z,2.10
2018-09-12T00:27:06.365Z,4.70
2018-09-12T00:28:06.370Z,3.00
2018-09-12T00:29:06.369Z,5.50
2018-09-12T00:30:06.372Z,2.50
2018-09-12T00:31:06.374Z,4.40
2018-09-12T00:32:06.377Z,3.00
2018-09-12T00:33:06.378Z,2.30
2018-09-12T00:34:06.380Z,5.10
2018-09-12T00:35:06.382Z,9.10
2018-09-12T00:36:06.385Z,2.30
2018-09-12T00:37:06.387Z,3.70
2018-09-12T00:38:06.392Z,4.10
2018-09-12T00:39:06.391Z,5.50
2018-09-12T00:40:06.394Z,3.60
2018-09-12T00:41:06.395Z,6.20
2018-09-12T00:42:06.398Z,2.20
2018-09-12T00:43:06.399Z,4.40
2018-09-12T00:44:06.403Z,4.20
2018-09-12T00:45:06.408Z,3.90
2018-09-12T00:46:06.404Z,3.10
2018-09-12T00:47:06.406Z,3.30
2018-09-12T00:48:06.409Z,2.80
2018-09-12T00:49:06.410Z,3.40
2018-09-12T00:50:06.419Z,3.20
2018-09-12T00:51:06.415Z,5.90
2018-09-12T00:52:06.418Z,6.00
2018-09-12T00:53:06.418Z,5.00
2018-09-12T00:54:06.421Z,3.60
2018-09-12T00:55:06.422Z,3.30
2018-09-12T00:56:06.426Z,3.20
2018-09-12T00:57:06.426Z,3.80
2018-09-12T00:58:06.429Z,3.60
2018-09-12T00:59:06.429Z,5.90
2018-09-12T01:00:06.431Z,3.60
2018-09-12T01:01:06.432Z,4.20
2018-09-12T01:02:06.435Z,3.40
2018-09-12T01:03:06.437Z,7.50
2018-09-12T01:04:06.441Z,6.00
2018-09-12T01:05:06.440Z,4.70
2018-09-12T01:06:06.444Z,3.40
2018-09-12T01:07:06.445Z,5.10
2018-09-12T01:08:06.447Z,3.90
2018-09-12T01:09:06.448Z,5.00
2018-09-12T01:10:06.451Z,3.90
2018-09-12T01:11:06.453Z,4.40
2018-09-12T01:12:06.456Z,4.30
2018-09-12T01:13:06.457Z,6.80
2018-09-12T01:14:06.459Z,5.20
2018-09-12T01:15:06.461Z,4.10
2018-09-12T01:16:06.464Z,2.70
2018-09-12T01:17:06.463Z,5.60
2018-09-12T01:18:06.467Z,4.20
2018-09-12T01:19:06.468Z,4.60
2018-09-12T01:20:06.474Z,3.70
2018-09-12T01:21:06.471Z,3.90
2018-09-12T01:22:06.474Z,2.40
2018-09-12T01:23:06.480Z,8.70
2018-09-12T01:24:06.477Z,6.00
2018-09-12T01:25:06.480Z,3.30
2018-09-12T01:26:06.482Z,4.70
2018-09-12T01:27:06.483Z,6.40
2018-09-12T01:28:06.487Z,3.10
2018-09-12T01:29:06.487Z,5.60
2018-09-12T01:30:06.488Z,5.80
2018-09-12T01:31:06.490Z,6.80
2018-09-12T01:32:06.493Z,7.50
2018-09-12T01:33:06.494Z,2.60
2018-09-12T01:34:06.502Z,2.70
2018-09-12T01:35:06.499Z,3.80
2018-09-12T01:36:06.501Z,3.30
2018-09-12T01:37:06.503Z,4.00
2018-09-12T01:38:06.503Z,7.00
2018-09-12T01:39:06.507Z,3.80
2018-09-12T01:40:06.507Z,4.50
2018-09-12T01:41:06.509Z,4.60
2018-09-12T01:42:06.512Z,4.60
2018-09-12T01:43:06.514Z,3.00
2018-09-12T01:44:06.516Z,4.90
2018-09-12T01:45:06.518Z,4.10
2018-09-12T01:46:06.519Z,3.10
2018-09-12T01:47:06.522Z,2.80
2018-09-12T01:48:06.523Z,11.20
2018-09-12T01:49:06.524Z,3.00
2018-09-12T01:50:06.527Z,8.10
2018-09-12T01:51:06.529Z,9.70
2018-09-12T01:52:06.531Z,6.00
2018-09-12T01:53:06.531Z,6.80
2018-09-12T01:54:06.537Z,4.60
2018-09-12T01:55:06.536Z,8.30
2018-09-12T01:56:06.537Z,5.20
2018-09-12T01:57:06.540Z,7.00
2018-09-12T01:58:06.541Z,4.20
2018-09-12T01:59:06.543Z,5.70
2018-09-12T02:00:06.546Z,5.60
2018-09-12T02:01:06.547Z,3.40
2018-09-12T02:02:06.548Z,3.30
2018-09-12T02:03:06.550Z,4.30
2018-09-12T02:04:06.552Z,8.10
2018-09-12T02:05:06.556Z,6.10
2018-09-12T02:06:06.554Z,5.00
2018-09-12T02:07:06.557Z,2.90
2018-09-12T02:08:06.562Z,4.40
2018-09-12T02:09:06.561Z,4.30
2018-09-12T02:10:06.561Z,5.90
2018-09-12T02:11:06.565Z,5.80
2018-09-12T02:12:06.565Z,6.00
2018-09-12T02:13:06.567Z,4.40
2018-09-12T02:14:06.568Z,7.20
2018-09-12T02:15:06.571Z,3.80
2018-09-12T02:16:06.573Z,5.40
2018-09-12T02:17:06.575Z,5.00
2018-09-12T02:18:06.575Z,8.00
2018-09-12T02:19:06.578Z,4.20
2018-09-12T02:20:06.581Z,3.40
2018-09-12T02:21:06.582Z,5.00
2018-09-12T02:22:06.583Z,5.30
2018-09-12T02:23:06.585Z,8.20
2018-09-12T02:24:06.587Z,6.50
2018-09-12T02:25:06.588Z,4.10
2018-09-12T02:26:06.590Z,4.30
2018-09-12T02:27:06.592Z,3.60
2018-09-12T02:28:06.594Z,6.00
2018-09-12T02:29:06.596Z,4.00
2018-09-12T02:30:06.596Z,5.10
2018-09-12T02:31:06.599Z,5.00
2018-09-12T02:32:06.602Z,5.80
2018-09-12T02:33:06.603Z,5.00
2018-09-12T02:34:06.604Z,6.30
2018-09-12T02:35:06.607Z,6.90
2018-09-12T02:36:06.613Z,5.10
2018-09-12T02:37:06.613Z,2.90
2018-09-12T02:38:06.612Z,5.90
2018-09-12T02:39:06.613Z,3.20
2018-09-12T02:40:06.614Z,8.80
2018-09-12T02:41:06.617Z,4.60
2018-09-12T02:42:06.618Z,4.10
2018-09-12T02:43:06.620Z,13.30
2018-09-12T02:44:06.623Z,4.40
2018-09-12T02:45:06.624Z,5.20
2018-09-12T02:46:06.624Z,4.90
2018-09-12T02:47:06.627Z,4.40
2018-09-12T02:48:06.630Z,4.40
2018-09-12T02:49:06.630Z,5.00
2018-09-12T02:50:06.633Z,4.80
2018-09-12T02:51:06.634Z,4.10
2018-09-12T02:52:06.637Z,3.50
2018-09-12T02:53:06.639Z,3.90
2018-09-12T02:54:06.640Z,5.30
2018-09-12T02:55:06.642Z,4.10
2018-09-12T02:56:06.644Z,8.60
2018-09-12T02:57:06.644Z,5.20
2018-09-12T02:58:06.650Z,5.30
2018-09-12T02:59:06.649Z,7.50
2018-09-12T03:00:06.654Z,4.60
2018-09-12T03:01:06.652Z,5.50
2018-09-12T03:02:06.653Z,8.50
2018-09-12T03:03:06.654Z,7.50
2018-09-12T03:04:06.658Z,7.10
2018-09-12T03:05:06.658Z,7.00
2018-09-12T03:06:06.660Z,4.50
2018-09-12T03:07:06.663Z,3.60
2018-09-12T03:08:06.665Z,4.30
2018-09-12T03:09:06.665Z,5.60
2018-09-12T03:10:06.667Z,5.90
2018-09-12T03:11:06.673Z,4.30
2018-09-12T03:12:06.674Z,8.60
2018-09-12T03:13:06.671Z,4.80
2018-09-12T03:14:06.674Z,9.30
2018-09-12T03:15:06.674Z,4.20
2018-09-12T03:16:06.678Z,8.70
2018-09-12T03:17:06.679Z,10.60
2018-09-12T03:18:06.680Z,5.20
2018-09-12T03:19:06.682Z,11.90
2018-09-12T03:20:06.685Z,4.80
2018-09-12T03:21:06.889Z,5.20
2018-09-12T03:22:06.687Z,5.90
2018-09-12T03:23:06.689Z,5.10
2018-09-12T03:24:06.692Z,6.20
2018-09-12T03:25:06.692Z,7.00
2018-09-12T03:26:06.694Z,4.90
2018-09-12T03:27:06.695Z,3.80
2018-09-12T03:28:06.697Z,10.10
2018-09-12T03:29:06.697Z,6.80
2018-09-12T03:30:06.700Z,6.60
2018-09-12T03:31:06.701Z,6.50
2018-09-12T03:32:06.711Z,5.30
2018-09-12T03:33:06.703Z,5.50
2018-09-12T03:34:06.707Z,7.10
2018-09-12T03:35:06.706Z,6.20
2018-09-12T03:36:06.710Z,3.50
2018-09-12T03:37:06.710Z,3.60
2018-09-12T03:38:06.718Z,4.00
2018-09-12T03:39:06.714Z,6.00
2018-09-12T03:40:06.715Z,4.40
2018-09-12T03:41:06.715Z,3.80
2018-09-12T03:42:06.718Z,7.50
2018-09-12T03:43:06.719Z,5.70
2018-09-12T03:44:06.726Z,5.80
2018-09-12T03:45:06.722Z,7.40
2018-09-12T03:46:06.724Z,4.80
2018-09-12T03:47:06.726Z,5.10
2018-09-12T03:48:06.756Z,4.40
2018-09-12T03:49:06.727Z,5.20
2018-09-12T03:50:06.730Z,6.80
2018-09-12T03:51:06.732Z,5.40
2018-09-12T03:52:06.732Z,8.30
2018-09-12T03:53:06.732Z,3.40
2018-09-12T03:54:06.733Z,3.70
2018-09-12T03:55:06.737Z,8.00
2018-09-12T03:56:06.739Z,4.40
2018-09-12T03:57:06.739Z,3.20
2018-09-12T03:58:06.742Z,6.70
2018-09-12T03:59:06.743Z,6.50
2018-09-12T04:00:06.743Z,5.70
2018-09-12T04:01:06.749Z,7.20
2018-09-12T04:02:06.745Z,4.10
2018-09-12T04:03:06.747Z,6.90
2018-09-12T04:04:06.749Z,4.80
2018-09-12T04:05:06.750Z,6.00
2018-09-12T04:06:06.752Z,3.60
2018-09-12T04:07:06.752Z,8.50
2018-09-12T04:08:06.755Z,3.50
2018-09-12T04:09:06.755Z,4.40
2018-09-12T04:10:06.756Z,4.50
2018-09-12T04:11:06.761Z,4.80
2018-09-12T04:12:06.760Z,5.10
2018-09-12T04:13:06.760Z,5.20
2018-09-12T04:14:06.762Z,6.20
2018-09-12T04:15:06.764Z,8.50
2018-09-12T04:16:06.765Z,5.70
2018-09-12T04:17:06.767Z,8.20
2018-09-12T04:18:06.768Z,7.30
2018-09-12T04:19:06.768Z,11.80
2018-09-12T04:20:06.770Z,9.40
2018-09-12T04:21:06.770Z,12.90
2018-09-12T04:22:06.774Z,8.80
2018-09-12T04:23:06.773Z,10.10
2018-09-12T04:24:06.845Z,10.40
2018-09-12T04:25:06.776Z,10.40
2018-09-12T04:26:06.777Z,14.10
2018-09-12T04:27:06.778Z,9.90
2018-09-12T04:28:06.779Z,10.60
2018-09-12T04:29:06.781Z,11.60
2018-09-12T04:30:06.785Z,10.30
2018-09-12T04:31:06.786Z,7.90
2018-09-12T04:32:06.784Z,12.30
2018-09-12T04:33:06.786Z,15.60
2018-09-12T04:34:06.786Z,7.20
2018-09-12T04:35:06.788Z,12.10
2018-09-12T04:36:06.789Z,9.60
2018-09-12T04:37:06.790Z,9.70
2018-09-12T04:38:06.831Z,10.10
2018-09-12T04:39:06.798Z,8.30
2018-09-12T04:40:06.795Z,13.50
2018-09-12T04:41:06.795Z,8.60
2018-09-12T04:42:06.798Z,9.70
2018-09-12T04:43:06.798Z,10.50
2018-09-12T04:44:06.800Z,7.80
2018-09-12T04:45:06.800Z,7.20
2018-09-12T04:46:06.801Z,7.20
2018-09-12T04:47:06.802Z,6.60
2018-09-12T04:48:06.804Z,7.20
2018-09-12T04:49:06.804Z,9.40
2018-09-12T04:50:06.809Z,5.40
2018-09-12T04:51:06.807Z,6.20
2018-09-12T04:52:06.809Z,10.00
2018-09-12T04:53:06.810Z,9.30
2018-09-12T04:54:06.812Z,7.50
2018-09-12T04:55:06.813Z,9.80
2018-09-12T04:56:06.813Z,6.40
2018-09-12T04:57:06.816Z,8.40
2018-09-12T04:58:06.818Z,6.20
2018-09-12T04:59:06.817Z,8.30
2018-09-12T05:00:06.828Z,6.70
2018-09-12T05:01:06.822Z,8.20
2018-09-12T05:02:06.821Z,7.80
2018-09-12T05:03:06.824Z,9.20
2018-09-12T05:04:06.823Z,8.60
2018-09-12T05:05:06.826Z,7.10
2018-09-12T05:06:06.826Z,5.80
2018-09-12T05:07:06.829Z,8.30
2018-09-12T05:08:06.828Z,6.90
2018-09-12T05:09:06.830Z,6.40
2018-09-12T05:10:06.883Z,6.50
2018-09-12T05:11:06.833Z,10.50
2018-09-12T05:12:06.835Z,7.50
2018-09-12T05:13:06.835Z,9.10
2018-09-12T05:14:06.837Z,9.00
2018-09-12T05:15:06.840Z,8.20
2018-09-12T05:16:06.901Z,7.80
2018-09-12T05:17:06.840Z,5.90
2018-09-12T05:18:06.842Z,10.00
2018-09-12T05:19:06.843Z,7.00
2018-09-12T05:20:06.845Z,6.40
2018-09-12T05:21:06.847Z,7.20
2018-09-12T05:22:06.851Z,11.10
2018-09-12T05:23:06.847Z,8.30
2018-09-12T05:24:06.852Z,5.40
2018-09-12T05:25:06.849Z,8.20
2018-09-12T05:26:06.852Z,8.70
2018-09-12T05:27:06.853Z,6.60
2018-09-12T05:28:06.856Z,10.00
2018-09-12T05:29:06.858Z,6.00
2018-09-12T05:30:06.858Z,6.40
2018-09-12T05:31:06.858Z,7.10
2018-09-12T05:32:06.861Z,21.60
2018-09-12T05:33:06.861Z,17.00
2018-09-12T05:34:06.861Z,9.30
2018-09-12T05:35:06.864Z,12.40
2018-09-12T05:36:06.865Z,7.20
2018-09-12T05:37:06.868Z,8.10
2018-09-12T05:38:06.867Z,7.60
2018-09-12T05:39:06.869Z,10.20
2018-09-12T05:40:06.870Z,7.90
2018-09-12T05:41:06.871Z,8.70
2018-09-12T05:42:06.871Z,12.60
2018-09-12T05:43:06.874Z,7.60
2018-09-12T05:44:06.875Z,7.40
2018-09-12T05:45:06.874Z,8.70
2018-09-12T05:46:06.878Z,9.40
2018-09-12T05:47:06.877Z,8.80
2018-09-12T05:48:06.882Z,7.70
2018-09-12T05:49:06.880Z,7.30
2018-09-12T05:50:06.898Z,8.60
2018-09-12T05:51:06.882Z,4.90
2018-09-12T05:52:06.893Z,10.00
2018-09-12T05:53:06.885Z,7.10
2018-09-12T05:54:06.885Z,11.10
2018-09-12T05:55:06.886Z,6.80
2018-09-12T05:56:06.889Z,15.60
2018-09-12T05:57:06.890Z,9.80
2018-09-12T05:58:06.892Z,9.30
2018-09-12T05:59:06.893Z,9.20
2018-09-12T06:00:06.897Z,10.40
2018-09-12T06:01:06.895Z,8.70
2018-09-12T06:02:06.898Z,8.20
2018-09-12T06:03:06.897Z,10.90
2018-09-12T06:04:06.899Z,10.30
2018-09-12T06:05:06.899Z,7.00
2018-09-12T06:06:06.900Z,7.00
2018-09-12T06:07:07.045Z,6.30
2018-09-12T06:08:06.902Z,8.90
2018-09-12T06:09:06.903Z,10.40
2018-09-12T06:10:06.905Z,16.20
2018-09-12T06:11:06.907Z,6.00
2018-09-12T06:12:06.908Z,10.80
2018-09-12T06:13:06.909Z,9.40
2018-09-12T06:14:06.991Z,5.70
2018-09-12T06:15:06.911Z,8.20
2018-09-12T06:16:06.914Z,10.40
2018-09-12T06:17:06.915Z,8.00
2018-09-12T06:18:06.945Z,7.60
2018-09-12T06:19:06.917Z,9.40
2018-09-12T06:20:06.918Z,6.30
2018-09-12T06:21:06.920Z,9.00
2018-09-12T06:22:06.923Z,8.90
2018-09-12T06:23:06.924Z,7.40
2018-09-12T06:24:06.925Z,5.80
2018-09-12T06:25:06.925Z,6.10
2018-09-12T06:26:06.926Z,7.60
2018-09-12T06:27:06.927Z,11.80
2018-09-12T06:28:06.930Z,9.70
2018-09-12T06:29:06.931Z,7.70
2018-09-12T06:30:06.932Z,8.10
2018-09-12T06:31:06.933Z,7.40
2018-09-12T06:32:06.934Z,7.50
2018-09-12T06:33:06.934Z,12.40
2018-09-12T06:34:06.935Z,6.90
2018-09-12T06:35:06.938Z,7.70
2018-09-12T06:36:06.939Z,7.60
2018-09-12T06:37:06.941Z,8.90
2018-09-12T06:38:06.940Z,9.00
2018-09-12T06:39:06.944Z,11.10
2018-09-12T06:40:06.943Z,8.70
2018-09-12T06:41:06.946Z,8.40
2018-09-12T06:42:06.946Z,7.30
2018-09-12T06:43:06.948Z,14.40
2018-09-12T06:44:06.950Z,12.20
2018-09-12T06:45:06.951Z,11.70
2018-09-12T06:46:06.952Z,7.70
2018-09-12T06:47:06.955Z,7.50
2018-09-12T06:48:06.956Z,12.00
2018-09-12T06:49:06.956Z,7.90
2018-09-12T06:50:06.957Z,9.60
2018-09-12T06:51:06.959Z,8.00
2018-09-12T06:52:06.961Z,7.90
2018-09-12T06:53:06.961Z,14.30
2018-09-12T06:54:06.962Z,10.30
2018-09-12T06:55:06.964Z,6.10
2018-09-12T06:56:06.965Z,8.50
2018-09-12T06:57:06.965Z,9.90
2018-09-12T06:58:06.970Z,7.90
2018-09-12T06:59:06.970Z,9.60
2018-09-12T07:00:06.973Z,13.20
2018-09-12T07:01:07.024Z,9.70
2018-09-12T07:02:06.974Z,10.70
2018-09-12T07:03:06.976Z,13.70
2018-09-12T07:04:06.983Z,11.70
2018-09-12T07:05:06.980Z,9.90
2018-09-12T07:06:06.984Z,11.60
2018-09-12T07:07:06.984Z,9.50
2018-09-12T07:08:06.985Z,11.40
2018-09-12T07:09:06.986Z,10.60
2018-09-12T07:10:06.988Z,8.10
2018-09-12T07:11:06.994Z,9.40
2018-09-12T07:12:06.992Z,10.70
2018-09-12T07:13:06.995Z,12.60
2018-09-12T07:14:07.030Z,11.70
2018-09-12T07:15:06.998Z,9.40
2018-09-12T07:16:07.001Z,10.40
2018-09-12T07:17:07.004Z,12.10
2018-09-12T07:18:07.013Z,9.60
2018-09-12T07:19:07.006Z,12.80
2018-09-12T07:20:07.008Z,8.70
2018-09-12T07:21:07.008Z,7.00
2018-09-12T07:22:07.011Z,7.00
2018-09-12T07:23:07.013Z,11.60
2018-09-12T07:24:07.015Z,10.00
2018-09-12T07:25:07.018Z,11.00
2018-09-12T07:26:07.020Z,13.70
2018-09-12T07:27:07.021Z,11.30
2018-09-12T07:28:07.026Z,9.90
2018-09-12T07:29:07.025Z,12.50
2018-09-12T07:30:07.028Z,10.30
2018-09-12T07:31:07.031Z,14.40
2018-09-12T07:32:07.031Z,8.40
2018-09-12T07:33:07.033Z,12.30
2018-09-12T07:34:07.036Z,11.70
2018-09-12T07:35:07.037Z,9.10
2018-09-12T07:36:07.042Z,8.90
2018-09-12T07:37:07.041Z,9.40
2018-09-12T07:38:07.043Z,11.30
2018-09-12T07:39:07.047Z,10.70
2018-09-12T07:40:07.049Z,7.90
2018-09-12T07:41:07.050Z,14.20
2018-09-12T07:42:07.052Z,10.70
2018-09-12T07:43:07.056Z,7.70
2018-09-12T07:44:07.056Z,12.60
2018-09-12T07:45:07.061Z,10.50
2018-09-12T07:46:07.061Z,13.20
2018-09-12T07:47:07.065Z,10.40
2018-09-12T07:48:07.067Z,9.10
2018-09-12T07:49:07.071Z,15.80
2018-09-12T07:50:07.072Z,9.20
2018-09-12T07:51:07.077Z,9.00
2018-09-12T07:52:07.077Z,8.60
2018-09-12T07:53:07.079Z,6.90
2018-09-12T07:54:07.086Z,10.90
2018-09-12T07:55:07.115Z,12.00
2018-09-12T07:56:07.159Z,8.80
2018-09-12T07:57:07.088Z,11.90
2018-09-12T07:58:07.090Z,8.70
2018-09-12T07:59:07.092Z,9.20
2018-09-12T08:00:07.143Z,6.30
2018-09-12T08:01:07.098Z,6.70
2018-09-12T08:02:07.100Z,9.90
2018-09-12T08:03:07.102Z,8.30
2018-09-12T08:04:07.156Z,7.60
2018-09-12T08:05:07.116Z,7.90
2018-09-12T08:06:07.116Z,7.50
2018-09-12T08:07:07.115Z,9.50
2018-09-12T08:08:07.117Z,8.30
2018-09-12T08:09:07.119Z,10.00
2018-09-12T08:10:07.122Z,6.60
2018-09-12T08:11:07.125Z,6.10
2018-09-12T08:12:07.184Z,8.00
2018-09-12T08:13:07.131Z,7.60
2018-09-12T08:14:07.134Z,7.60
2018-09-12T08:15:07.138Z,9.60
2018-09-12T08:16:07.139Z,8.60
2018-09-12T08:17:07.171Z,9.20
2018-09-12T08:18:07.144Z,8.30
2018-09-12T08:19:07.174Z,8.90
2018-09-12T08:20:07.151Z,7.40
2018-09-12T08:21:07.152Z,5.80
2018-09-12T08:22:07.155Z,8.90
2018-09-12T08:23:07.159Z,7.00
2018-09-12T08:24:07.161Z,6.80
2018-09-12T08:25:07.164Z,6.30
2018-09-12T08:26:07.175Z,7.70
2018-09-12T08:27:07.173Z,9.20
2018-09-12T08:28:07.174Z,8.10
2018-09-12T08:29:07.176Z,4.80
2018-09-12T08:30:07.180Z,8.70
2018-09-12T08:31:07.184Z,5.90
2018-09-12T08:32:07.191Z,5.70
2018-09-12T08:33:07.189Z,6.60
2018-09-12T08:34:07.194Z,6.60
2018-09-12T08:35:07.196Z,5.00
2018-09-12T08:36:07.199Z,8.70
2018-09-12T08:37:07.203Z,5.10
2018-09-12T08:38:07.206Z,6.90
2018-09-12T08:39:07.212Z,9.20
2018-09-12T08:40:07.212Z,4.00
2018-09-12T08:41:07.216Z,7.20
2018-09-12T08:42:07.241Z,6.60
2018-09-12T08:43:07.225Z,5.80
2018-09-12T08:44:07.226Z,6.00
2018-09-12T08:45:07.229Z,5.80
2018-09-12T08:46:07.232Z,9.20
2018-09-12T08:47:07.234Z,6.70
2018-09-12T08:48:07.239Z,5.60
2018-09-12T08:49:07.241Z,6.20
2018-09-12T08:50:07.244Z,5.90
2018-09-12T08:51:07.249Z,7.20
2018-09-12T08:52:07.253Z,5.80
2018-09-12T08:53:07.256Z,8.00
2018-09-12T08:54:07.259Z,5.30
2018-09-12T08:55:07.262Z,6.70
2018-09-12T08:56:07.267Z,8.20
2018-09-12T08:57:07.269Z,4.70
2018-09-12T08:58:07.272Z,6.20
2018-09-12T08:59:07.276Z,6.50
2018-09-12T09:00:07.309Z,7.40
2018-09-12T09:01:07.300Z,10.10
2018-09-12T09:02:07.285Z,7.10
2018-09-12T09:03:07.291Z,8.20
2018-09-12T09:04:07.352Z,9.30
2018-09-12T09:05:07.296Z,5.80
2018-09-12T09:06:07.299Z,11.10
2018-09-12T09:07:07.302Z,7.20
2018-09-12T09:08:07.355Z,6.40
2018-09-12T09:09:07.309Z,8.90
2018-09-12T09:10:07.312Z,8.40
2018-09-12T09:11:07.319Z,5.70
2018-09-12T09:12:07.320Z,8.00
2018-09-12T09:13:07.321Z,9.50
2018-09-12T09:14:07.327Z,10.10
2018-09-12T09:15:07.328Z,7.40
2018-09-12T09:16:07.332Z,13.70
2018-09-12T09:17:07.333Z,9.70
2018-09-12T09:18:07.338Z,9.50
2018-09-12T09:19:07.341Z,5.50
2018-09-12T09:20:07.344Z,10.70
2018-09-12T09:21:07.347Z,7.20
2018-09-12T09:22:07.351Z,10.80
2018-09-12T09:23:07.355Z,11.80
2018-09-12T09:24:07.357Z,9.70
2018-09-12T09:25:07.360Z,9.60
2018-09-12T09:26:07.364Z,6.00
2018-09-12T09:27:07.367Z,8.50
2018-09-12T09:28:07.371Z,14.20
2018-09-12T09:29:07.373Z,10.90
2018-09-12T09:30:07.378Z,14.60
2018-09-12T09:31:07.378Z,8.60
2018-09-12T09:32:07.382Z,15.90
2018-09-12T09:33:07.384Z,16.40
2018-09-12T09:34:07.389Z,9.20
2018-09-12T09:35:07.463Z,15.70
2018-09-12T09:36:07.394Z,12.50
2018-09-12T09:37:07.398Z,11.40
2018-09-12T09:38:07.400Z,9.20
2018-09-12T09:39:07.404Z,15.90
2018-09-12T09:40:07.407Z,12.40
2018-09-12T09:41:07.467Z,19.60
2018-09-12T09:42:07.414Z,9.00
2018-09-12T09:43:07.416Z,11.40
2018-09-12T09:44:07.433Z,11.00
2018-09-12T09:45:07.422Z,19.50
2018-09-12T09:46:07.428Z,14.40
2018-09-12T09:47:07.428Z,13.10
2018-09-12T09:48:07.520Z,12.20
2018-09-12T09:49:07.440Z,12.70
2018-09-12T09:50:07.438Z,13.00
2018-09-12T09:51:07.442Z,10.80
2018-09-12T09:52:07.446Z,13.90
2018-09-12T09:53:07.449Z,12.20
2018-09-12T09:54:07.453Z,10.80
2018-09-12T09:55:07.501Z,9.20
2018-09-12T09:56:07.460Z,10.60
2018-09-12T09:57:07.463Z,9.70
2018-09-12T09:58:07.467Z,7.80
2018-09-12T09:59:07.473Z,12.80
2018-09-12T10:00:07.476Z,7.40
2018-09-12T10:01:07.480Z,10.90
2018-09-12T10:02:07.485Z,8.50
2018-09-12T10:03:07.489Z,9.40
2018-09-12T10:04:07.493Z,9.40
2018-09-12T10:05:07.497Z,13.80
2018-09-12T10:06:07.501Z,11.20
2018-09-12T10:07:07.505Z,9.20
2018-09-12T10:08:07.511Z,9.10
2018-09-12T10:09:07.514Z,7.20
2018-09-12T10:10:07.520Z,10.10
2018-09-12T10:11:07.524Z,8.60
2018-09-12T10:12:07.528Z,8.60
2018-09-12T10:13:07.533Z,7.50
2018-09-12T10:14:07.538Z,4.70
2018-09-12T10:15:07.540Z,4.40
2018-09-12T10:16:07.546Z,4.20
2018-09-12T10:17:07.550Z,2.80
2018-09-12T10:18:07.553Z,3.70
2018-09-12T10:19:07.558Z,4.30
2018-09-12T10:20:07.562Z,2.70
2018-09-12T10:21:07.565Z,2.60
2018-09-12T10:22:07.570Z,2.30
2018-09-12T10:23:07.576Z,4.60
2018-09-12T10:24:07.632Z,4.10
2018-09-12T10:25:07.579Z,2.20
2018-09-12T10:26:07.584Z,1.60
2018-09-12T10:27:07.585Z,2.60
2018-09-12T10:28:07.589Z,2.70
2018-09-12T10:29:07.591Z,1.70
2018-09-12T10:30:07.594Z,1.40
2018-09-12T10:31:07.597Z,1.60
2018-09-12T10:32:07.599Z,2.00
2018-09-12T10:33:07.602Z,2.40
2018-09-12T10:34:07.606Z,1.30
2018-09-12T10:35:07.607Z,1.20
2018-09-12T10:36:07.610Z,1.30
2018-09-12T10:37:07.611Z,1.40
2018-09-12T10:38:07.613Z,1.60
2018-09-12T10:39:07.616Z,1.30
2018-09-12T10:40:07.618Z,1.30
2018-09-12T10:41:07.696Z,1.40
2018-09-12T10:42:07.622Z,2.50
2018-09-12T10:43:07.624Z,1.30
2018-09-12T10:44:07.676Z,3.50
2018-09-12T10:45:07.627Z,1.70
2018-09-12T10:46:07.630Z,1.60
2018-09-12T10:47:07.631Z,2.10
2018-09-12T10:48:07.633Z,1.70
2018-09-12T10:49:07.634Z,1.80
2018-09-12T10:50:07.635Z,1.50
2018-09-12T10:51:07.637Z,1.50
2018-09-12T10:52:07.642Z,1.60
2018-09-12T10:53:07.641Z,2.10
2018-09-12T10:54:07.642Z,1.70
2018-09-12T10:55:07.645Z,1.40
2018-09-12T10:56:07.647Z,1.70
2018-09-12T10:57:07.646Z,1.80
2018-09-12T10:58:07.649Z,1.60
2018-09-12T10:59:07.676Z,1.50
2018-09-12T11:00:07.651Z,1.50
2018-09-12T11:01:07.653Z,1.30
2018-09-12T11:02:07.653Z,1.30
2018-09-12T11:03:07.654Z,1.30
2018-09-12T11:04:07.655Z,1.00
2018-09-12T11:05:07.658Z,1.10
2018-09-12T11:06:07.658Z,1.20
2018-09-12T11:07:07.664Z,1.30
2018-09-12T11:08:07.661Z,1.00
2018-09-12T11:09:07.662Z,1.20
2018-09-12T11:10:07.664Z,1.20
2018-09-12T11:11:07.666Z,1.10
2018-09-12T11:12:07.666Z,1.30
2018-09-12T11:13:07.667Z,1.20
2018-09-12T11:14:07.672Z,2.80
2018-09-12T11:15:07.710Z,1.30
2018-09-12T11:16:07.672Z,1.20
2018-09-12T11:17:07.677Z,1.20
2018-09-12T11:18:07.701Z,1.50
2018-09-12T11:19:07.677Z,1.20
2018-09-12T11:20:07.681Z,4.10
2018-09-12T11:21:07.679Z,1.50
2018-09-12T11:22:07.680Z,1.50
2018-09-12T11:23:07.681Z,1.30
2018-09-12T11:24:07.686Z,1.10
2018-09-12T11:25:07.684Z,1.10
2018-09-12T11:26:07.687Z,1.50
2018-09-12T11:27:07.687Z,1.40
2018-09-12T11:28:07.689Z,5.00
2018-09-12T11:29:07.689Z,1.30
2018-09-12T11:30:07.691Z,2.20
2018-09-12T11:31:07.691Z,3.10
2018-09-12T11:32:07.694Z,1.30
2018-09-12T11:33:07.694Z,1.40
2018-09-12T11:34:07.747Z,1.40
2018-09-12T11:35:07.697Z,1.10
2018-09-12T11:36:07.697Z,2.50
2018-09-12T11:37:07.698Z,1.10
2018-09-12T11:38:07.699Z,2.70
2018-09-12T11:39:07.702Z,1.40
2018-09-12T11:40:07.736Z,1.10
2018-09-12T11:41:07.703Z,1.20
2018-09-12T11:42:07.703Z,1.20
2018-09-12T11:43:07.706Z,1.70
2018-09-12T11:44:07.707Z,1.10
2018-09-12T11:45:07.708Z,1.20
2018-09-12T11:46:07.709Z,1.00
2018-09-12T11:47:07.711Z,1.20
2018-09-12T11:48:07.711Z,1.40
2018-09-12T11:49:07.794Z,1.80
2018-09-12T11:50:07.714Z,1.00
2018-09-12T11:51:07.714Z,1.50
2018-09-12T11:52:07.719Z,1.40
2018-09-12T11:53:07.718Z,1.60
2018-09-12T11:54:07.720Z,3.20
2018-09-12T11:55:07.717Z,3.00
2018-09-12T11:56:07.719Z,2.70
2018-09-12T11:57:07.719Z,1.60
2018-09-12T11:58:07.720Z,1.50
2018-09-12T11:59:07.721Z,3.80
2018-09-12T12:00:07.722Z,2.50
2018-09-12T12:01:07.723Z,1.80
2018-09-12T12:02:07.771Z,1.60
2018-09-12T12:03:07.725Z,1.50
2018-09-12T12:04:07.726Z,3.20
2018-09-12T12:05:07.724Z,3.60
2018-09-12T12:06:07.731Z,1.60
2018-09-12T12:07:07.726Z,3.40
2018-09-12T12:08:07.729Z,2.20
2018-09-12T12:09:07.727Z,1.70
2018-09-12T12:10:07.730Z,2.80
2018-09-12T12:11:07.729Z,2.20
2018-09-12T12:12:07.732Z,1.70
2018-09-12T12:13:07.730Z,2.50
2018-09-12T12:14:07.735Z,3.40
2018-09-12T12:15:07.732Z,2.00
2018-09-12T12:16:07.732Z,3.10
2018-09-12T12:17:07.733Z,4.00
2018-09-12T12:18:07.732Z,2.40
2018-09-12T12:19:07.734Z,1.80
2018-09-12T12:20:07.736Z,5.40
2018-09-12T12:21:07.735Z,2.40
2018-09-12T12:22:07.736Z,3.60
2018-09-12T12:23:07.754Z,2.50
2018-09-12T12:24:07.738Z,4.40
2018-09-12T12:25:07.738Z,2.30
2018-09-12T12:26:07.738Z,3.10
2018-09-12T12:27:07.740Z,2.20
2018-09-12T12:28:07.740Z,3.10
2018-09-12T12:29:07.740Z,4.90
2018-09-12T12:30:07.741Z,3.90
2018-09-12T12:31:07.741Z,4.10
2018-09-12T12:32:07.793Z,4.30
2018-09-12T12:33:07.742Z,2.60
2018-09-12T12:34:07.742Z,3.80
2018-09-12T12:35:07.741Z,4.30
2018-09-12T12:36:07.745Z,3.50
2018-09-12T12:37:07.743Z,3.10
2018-09-12T12:38:07.741Z,6.20
2018-09-12T12:39:07.742Z,2.10
2018-09-12T12:40:07.743Z,3.80
2018-09-12T12:41:07.779Z,4.10
2018-09-12T12:42:07.742Z,3.90
2018-09-12T12:43:07.742Z,2.50
2018-09-12T12:44:07.743Z,6.40
2018-09-12T12:45:07.743Z,2.00
2018-09-12T12:46:07.743Z,7.50
2018-09-12T12:47:07.743Z,9.10
2018-09-12T12:48:07.745Z,3.70
2018-09-12T12:49:07.743Z,2.90
2018-09-12T12:50:07.743Z,2.70
2018-09-12T12:51:07.744Z,3.90
2018-09-12T12:52:07.745Z,8.20
2018-09-12T12:53:07.743Z,5.20
2018-09-12T12:54:07.744Z,3.20
2018-09-12T12:55:07.744Z,5.10
2018-09-12T12:56:07.744Z,3.90
2018-09-12T12:57:07.744Z,4.30
2018-09-12T12:58:07.750Z,4.00
2018-09-12T12:59:07.750Z,3.30
2018-09-12T13:00:07.744Z,1.90
2018-09-12T13:01:07.742Z,3.40
2018-09-12T13:02:07.743Z,2.70
2018-09-12T13:03:07.743Z,3.60
2018-09-12T13:04:07.744Z,1.80
2018-09-12T13:05:07.742Z,3.80
2018-09-12T13:06:07.744Z,3.80
2018-09-12T13:07:07.744Z,2.30
2018-09-12T13:08:07.744Z,6.50
2018-09-12T13:09:07.743Z,2.70
2018-09-12T13:10:07.743Z,4.30
2018-09-12T13:11:07.745Z,10.50
2018-09-12T13:12:07.744Z,1.90
2018-09-12T13:13:07.743Z,1.70
2018-09-12T13:14:07.743Z,2.50